Time;durP1;ratioP1;P1;durP2;ratioP2;P2;SDS_P1;SDS_P2;PMS_P1;PMS_P2;Temp;Humidity;BMP_temperature;BMP_pressure;BME280_temperature;BME280_humidity;BME280_pressure;Samples;Min_cycle;Max_cycle;Signal;HPM_P1;HPM_P2
2022/03/26 00:01:57;;;;;;;;;;;4.70;99.90;;;;;;5041675;28;20378;-76
2022/03/26 00:04:22;;;;;;;;;;;4.70;99.90;;;;;;5042624;28;20169;-76
2022/03/26 00:06:48;;;;;;;;;;;4.60;99.90;;;;;;5050676;28;19936;-76
2022/03/26 00:09:13;;;;;;;;;;;4.60;99.90;;;;;;5051328;28;19925;-76
2022/03/26 00:11:38;;;;;;;;;;;4.60;99.90;;;;;;5049764;28;19921;-76
2022/03/26 00:14:04;;;;;;;;;;;4.50;99.90;;;;;;5024752;28;19925;-76
2022/03/26 00:16:29;;;;;;;;;;;4.50;99.90;;;;;;5047881;28;19925;-76
2022/03/26 00:18:55;;;;;;;;;;;4.50;99.90;;;;;;5050808;28;19970;-76
2022/03/26 00:21:21;;;;;;;;;;;4.50;99.90;;;;;;5050885;28;19928;-76
2022/03/26 00:23:46;;;;;;;;;;;4.40;99.90;;;;;;5046645;28;20359;-76
2022/03/26 00:26:12;;;;;;;;;;;4.40;99.90;;;;;;5046494;28;19940;-76
2022/03/26 00:28:38;;;;;;;;;;;4.50;99.90;;;;;;5050532;28;19992;-76
2022/03/26 00:31:06;;;;;;;;;;;4.50;99.90;;;;;;5044600;28;19928;-76
2022/03/26 00:33:32;;;;;;;;;;;4.60;99.90;;;;;;5046050;28;19932;-75
2022/03/26 00:35:58;;;;;;;;;;;4.60;99.90;;;;;;5027044;28;19925;-75
2022/03/26 00:38:24;;;;;;;;;;;4.70;99.90;;;;;;5050789;28;19976;-75
2022/03/26 00:40:49;;;;;;;;;;;4.60;99.90;;;;;;5033979;28;20408;-75
2022/03/26 00:43:15;;;;;;;;;;;4.70;99.90;;;;;;5049574;28;19928;-75
2022/03/26 00:45:42;;;;;;;;;;;4.70;99.90;;;;;;5041701;28;20007;-75
2022/03/26 00:48:07;;;;;;;;;;;4.70;99.90;;;;;;5050450;28;19921;-76
2022/03/26 00:50:34;;;;;;;;;;;4.70;99.90;;;;;;5049678;28;19921;-76
2022/03/26 00:52:59;;;;;;;;;;;4.60;99.90;;;;;;5043319;28;20007;-76
2022/03/26 00:55:25;;;;;;;;;;;4.60;99.90;;;;;;5033282;28;19983;-76
2022/03/26 00:57:50;;;;;;;;;;;4.60;99.90;;;;;;5050190;28;19925;-76
2022/03/26 01:00:16;;;;;;;;;;;4.60;99.90;;;;;;5050257;28;19925;-76
2022/03/26 01:02:41;;;;;;;;;;;4.60;99.90;;;;;;5050319;28;19943;-76
2022/03/26 01:05:07;;;;;;;;;;;4.60;99.90;;;;;;5041303;28;19922;-76
2022/03/26 01:07:33;;;;;;;;;;;4.50;99.90;;;;;;5049674;28;19921;-76
2022/03/26 01:09:58;;;;;;;;;;;4.50;99.90;;;;;;5049112;28;19962;-76
2022/03/26 01:12:25;;;;;;;;;;;4.40;99.90;;;;;;5041782;28;19924;-76
2022/03/26 01:14:51;;;;;;;;;;;4.40;99.90;;;;;;5040717;28;19929;-76
2022/03/26 01:17:16;;;;;;;;;;;4.40;99.90;;;;;;5050134;28;20375;-76
2022/03/26 01:19:42;;;;;;;;;;;4.30;99.90;;;;;;5050080;28;19921;-76
2022/03/26 01:22:08;;;;;;;;;;;4.40;99.90;;;;;;5041129;28;20007;-76
2022/03/26 01:24:33;;;;;;;;;;;4.40;99.90;;;;;;5041002;28;20012;-76
2022/03/26 01:26:59;;;;;;;;;;;4.40;99.90;;;;;;5049777;28;20020;-76
2022/03/26 01:29:25;;;;;;;;;;;4.40;99.90;;;;;;5048893;28;19928;-76
2022/03/26 01:31:50;;;;;;;;;;;4.30;99.90;;;;;;5042444;28;19921;-76
2022/03/26 01:34:15;;;;;;;;;;;4.20;99.90;;;;;;5041769;28;19921;-76
2022/03/26 01:36:41;;;;;;;;;;;4.10;99.90;;;;;;5050043;28;19947;-76
2022/03/26 01:39:07;;;;;;;;;;;4.00;99.90;;;;;;5040794;28;19920;-76
2022/03/26 01:41:33;;;;;;;;;;;3.90;99.90;;;;;;5049951;28;19921;-76
2022/03/26 01:43:58;;;;;;;;;;;3.90;99.90;;;;;;5046962;28;19927;-76
2022/03/26 01:46:24;;;;;;;;;;;3.90;99.90;;;;;;5041153;28;19940;-76
2022/03/26 01:48:49;;;;;;;;;;;3.90;99.90;;;;;;5049835;28;20019;-76
2022/03/26 01:51:15;;;;;;;;;;;3.80;99.90;;;;;;5041099;28;19921;-76
2022/03/26 01:53:42;;;;;;;;;;;3.80;99.90;;;;;;5046241;28;19921;-76
2022/03/26 01:56:07;;;;;;;;;;;3.80;99.90;;;;;;5043865;28;19928;-76
2022/03/26 01:58:33;;;;;;;;;;;3.70;99.90;;;;;;5049710;28;19928;-76
2022/03/26 02:00:58;;;;;;;;;;;3.60;99.90;;;;;;5049814;28;20227;-76
2022/03/26 02:03:24;;;;;;;;;;;3.60;99.90;;;;;;5048854;28;20383;-76
2022/03/26 02:05:49;;;;;;;;;;;3.50;99.90;;;;;;5041259;28;19920;-76
2022/03/26 02:08:15;;;;;;;;;;;3.50;99.90;;;;;;5049154;28;19970;-76
2022/03/26 02:10:40;;;;;;;;;;;3.40;99.90;;;;;;5046633;28;19928;-76
2022/03/26 02:13:06;;;;;;;;;;;3.30;99.90;;;;;;5046976;28;19975;-76
2022/03/26 02:15:31;;;;;;;;;;;3.30;99.90;;;;;;5042529;28;20252;-76
2022/03/26 02:17:57;;;;;;;;;;;3.30;99.90;;;;;;5052913;28;20002;-76
2022/03/26 02:20:23;;;;;;;;;;;3.20;99.90;;;;;;5053417;28;20011;-76
2022/03/26 02:22:49;;;;;;;;;;;3.20;99.90;;;;;;5053116;28;20428;-76
2022/03/26 02:25:14;;;;;;;;;;;3.20;99.90;;;;;;5043391;28;19925;-76
2022/03/26 02:27:40;;;;;;;;;;;3.20;99.90;;;;;;5051346;28;20299;-76
2022/03/26 02:30:06;;;;;;;;;;;3.20;99.90;;;;;;5053426;28;19920;-76
2022/03/26 02:32:32;;;;;;;;;;;3.10;99.90;;;;;;5052808;28;19974;-76
2022/03/26 02:34:57;;;;;;;;;;;3.10;99.90;;;;;;5043401;28;19921;-76
2022/03/26 02:37:23;;;;;;;;;;;3.10;99.90;;;;;;5052500;28;20402;-76
2022/03/26 02:39:49;;;;;;;;;;;3.10;99.90;;;;;;5052696;28;19921;-76
2022/03/26 02:42:14;;;;;;;;;;;3.10;99.90;;;;;;5043423;28;19967;-76
2022/03/26 02:44:41;;;;;;;;;;;3.10;99.90;;;;;;5043347;28;20000;-76
2022/03/26 02:47:08;;;;;;;;;;;3.00;99.90;;;;;;5052288;28;19921;-76
2022/03/26 02:49:34;;;;;;;;;;;3.00;99.90;;;;;;5052813;28;19967;-76
2022/03/26 02:51:59;;;;;;;;;;;3.00;99.90;;;;;;5052471;28;19921;-76
2022/03/26 02:54:25;;;;;;;;;;;3.00;99.90;;;;;;5044655;28;19931;-75
2022/03/26 02:56:51;;;;;;;;;;;3.00;99.90;;;;;;5052476;28;19924;-76
2022/03/26 02:59:17;;;;;;;;;;;2.90;99.90;;;;;;5052684;28;20295;-76
2022/03/26 03:01:43;;;;;;;;;;;2.90;99.90;;;;;;5043746;28;19924;-76
2022/03/26 03:04:09;;;;;;;;;;;3.00;99.90;;;;;;5050992;28;19921;-76
2022/03/26 03:06:35;;;;;;;;;;;3.00;99.90;;;;;;5043960;28;19968;-76
2022/03/26 03:09:00;;;;;;;;;;;3.00;99.90;;;;;;5051791;28;19921;-76
2022/03/26 03:11:26;;;;;;;;;;;3.00;99.90;;;;;;5042950;28;19944;-76
2022/03/26 03:13:52;;;;;;;;;;;2.90;99.90;;;;;;5052044;28;19921;-75
2022/03/26 03:16:17;;;;;;;;;;;3.00;99.90;;;;;;5051890;28;19954;-75
2022/03/26 03:18:43;;;;;;;;;;;3.00;99.90;;;;;;5051888;28;19921;-75
2022/03/26 03:21:08;;;;;;;;;;;3.00;99.90;;;;;;5045041;28;19922;-75
2022/03/26 03:23:34;;;;;;;;;;;2.90;99.90;;;;;;5048336;28;19920;-75
2022/03/26 03:25:59;;;;;;;;;;;2.90;99.90;;;;;;5051511;28;19936;-75
2022/03/26 03:28:25;;;;;;;;;;;2.90;99.90;;;;;;5051637;28;19921;-75
2022/03/26 03:30:51;;;;;;;;;;;2.80;99.90;;;;;;5047415;28;20379;-75
2022/03/26 03:33:17;;;;;;;;;;;2.90;99.90;;;;;;5047774;28;19921;-75
2022/03/26 03:35:42;;;;;;;;;;;2.80;99.90;;;;;;5052772;28;19932;-75
2022/03/26 03:38:08;;;;;;;;;;;2.80;99.90;;;;;;5051884;28;19921;-75
2022/03/26 03:40:34;;;;;;;;;;;2.70;99.90;;;;;;5050459;28;20019;-75
2022/03/26 03:42:59;;;;;;;;;;;2.70;99.90;;;;;;5043290;28;20016;-76
2022/03/26 03:45:25;;;;;;;;;;;2.70;99.90;;;;;;5036286;28;20237;-76
2022/03/26 03:47:50;;;;;;;;;;;2.70;99.90;;;;;;5031330;28;19967;-76
2022/03/26 03:50:16;;;;;;;;;;;2.70;99.90;;;;;;5041213;28;19967;-76
2022/03/26 03:52:41;;;;;;;;;;;2.70;99.90;;;;;;5042932;28;19935;-75
2022/03/26 03:55:07;;;;;;;;;;;2.70;99.90;;;;;;5051475;28;19934;-75
2022/03/26 03:57:33;;;;;;;;;;;2.70;99.90;;;;;;5041969;28;19948;-75
2022/03/26 03:59:58;;;;;;;;;;;2.70;99.90;;;;;;5051516;28;20368;-75
2022/03/26 04:02:24;;;;;;;;;;;2.70;99.90;;;;;;5042463;28;20028;-75
2022/03/26 04:04:50;;;;;;;;;;;2.70;99.90;;;;;;5046451;28;19957;-75
2022/03/26 04:07:15;;;;;;;;;;;2.70;99.90;;;;;;5030971;28;19928;-75
2022/03/26 04:09:40;;;;;;;;;;;2.70;99.90;;;;;;5031027;28;19920;-75
2022/03/26 04:12:07;;;;;;;;;;;2.70;99.90;;;;;;5038823;28;19920;-75
2022/03/26 04:14:32;;;;;;;;;;;2.70;99.90;;;;;;5051015;28;19921;-75
2022/03/26 04:16:58;;;;;;;;;;;2.70;99.90;;;;;;5051127;28;20456;-75
2022/03/26 04:19:23;;;;;;;;;;;2.60;99.90;;;;;;5050856;28;20391;-75
2022/03/26 04:21:49;;;;;;;;;;;2.60;99.90;;;;;;5042103;28;19955;-75
2022/03/26 04:24:14;;;;;;;;;;;2.50;99.90;;;;;;5050445;28;19974;-75
2022/03/26 04:26:40;;;;;;;;;;;2.40;99.90;;;;;;5050610;28;19927;-75
2022/03/26 04:29:06;;;;;;;;;;;2.40;99.90;;;;;;5049209;28;20367;-75
2022/03/26 04:31:32;;;;;;;;;;;2.40;99.90;;;;;;5041539;28;19928;-75
2022/03/26 04:34:01;;;;;;;;;;;2.30;99.90;;;;;;5050147;28;19970;-75
2022/03/26 04:36:30;;;;;;;;;;;2.40;99.90;;;;;;5050391;28;20437;-75
2022/03/26 04:39:00;;;;;;;;;;;2.40;99.90;;;;;;5049858;28;19921;-76
2022/03/26 04:41:25;;;;;;;;;;;2.60;99.90;;;;;;5033863;28;19921;-76
2022/03/26 04:43:51;;;;;;;;;;;2.50;99.90;;;;;;5050553;28;19927;-75
2022/03/26 04:46:16;;;;;;;;;;;2.50;99.90;;;;;;5050276;28;19969;-75
2022/03/26 04:48:42;;;;;;;;;;;2.50;99.90;;;;;;5050470;28;19925;-76
2022/03/26 04:51:07;;;;;;;;;;;2.60;99.90;;;;;;5049516;28;20051;-75
2022/03/26 04:53:33;;;;;;;;;;;2.60;99.90;;;;;;5042152;28;19927;-76
2022/03/26 04:55:58;;;;;;;;;;;2.70;99.90;;;;;;5050459;28;20382;-76
2022/03/26 04:58:24;;;;;;;;;;;2.80;99.90;;;;;;5050339;28;19924;-76
2022/03/26 05:00:49;;;;;;;;;;;2.90;99.90;;;;;;5045981;28;20295;-76
2022/03/26 05:03:15;;;;;;;;;;;2.80;99.90;;;;;;5045473;28;19974;-76
2022/03/26 05:05:40;;;;;;;;;;;2.80;99.90;;;;;;5033154;28;20403;-75
2022/03/26 05:08:06;;;;;;;;;;;2.80;99.90;;;;;;5050092;28;19975;-76
2022/03/26 05:10:32;;;;;;;;;;;3.00;99.90;;;;;;5048340;28;19936;-76
2022/03/26 05:12:58;;;;;;;;;;;3.10;99.90;;;;;;5043342;28;19921;-75
2022/03/26 05:15:26;;;;;;;;;;;3.10;99.90;;;;;;5050085;28;19921;-76
2022/03/26 05:17:53;;;;;;;;;;;3.20;99.90;;;;;;5049826;28;19925;-75
2022/03/26 05:20:19;;;;;;;;;;;3.10;99.90;;;;;;5049211;28;19975;-75
2022/03/26 05:22:45;;;;;;;;;;;3.00;99.90;;;;;;5041753;28;19925;-76
2022/03/26 05:25:11;;;;;;;;;;;2.90;99.90;;;;;;5050205;28;20379;-76
2022/03/26 05:27:36;;;;;;;;;;;2.80;99.90;;;;;;5049290;28;19928;-76
2022/03/26 05:30:03;;;;;;;;;;;2.90;99.90;;;;;;5040277;28;20408;-76
2022/03/26 05:32:28;;;;;;;;;;;2.90;99.90;;;;;;5041532;28;19921;-75
2022/03/26 05:34:54;;;;;;;;;;;2.90;99.90;;;;;;5049947;28;19925;-76
2022/03/26 05:37:20;;;;;;;;;;;2.90;99.90;;;;;;5033207;28;19932;-75
2022/03/26 05:39:45;;;;;;;;;;;2.90;99.90;;;;;;5049794;28;19921;-75
2022/03/26 05:42:11;;;;;;;;;;;2.80;99.90;;;;;;5045207;28;19921;-76
2022/03/26 05:44:36;;;;;;;;;;;2.90;99.90;;;;;;5049837;28;19971;-75
2022/03/26 05:47:02;;;;;;;;;;;2.90;99.90;;;;;;5035257;28;20283;-75
2022/03/26 05:49:27;;;;;;;;;;;2.80;99.90;;;;;;5048520;28;20015;-76
2022/03/26 05:51:53;;;;;;;;;;;2.90;99.90;;;;;;5044605;28;19920;-76
2022/03/26 05:54:18;;;;;;;;;;;2.90;99.90;;;;;;5053668;28;19979;-75
2022/03/26 05:56:53;;;;;;;;;;;2.90;99.90;;;;;;5036837;28;19935;-75
2022/03/26 05:59:20;;;;;;;;;;;3.00;99.90;;;;;;5053868;28;20444;-75
2022/03/26 06:01:45;;;;;;;;;;;2.90;99.90;;;;;;5030979;28;19979;-76
2022/03/26 06:04:11;;;;;;;;;;;2.90;99.90;;;;;;5052653;28;19963;-75
2022/03/26 06:06:36;;;;;;;;;;;2.90;99.90;;;;;;5045090;28;19921;-75
2022/03/26 06:09:02;;;;;;;;;;;3.00;99.90;;;;;;5053324;28;19925;-75
2022/03/26 06:11:28;;;;;;;;;;;3.20;99.90;;;;;;5043980;28;19921;-75
2022/03/26 06:13:53;;;;;;;;;;;3.30;99.90;;;;;;5043943;28;19921;-75
2022/03/26 06:16:19;;;;;;;;;;;3.50;99.90;;;;;;5052858;28;19976;-76
2022/03/26 06:18:44;;;;;;;;;;;3.60;99.90;;;;;;5052590;28;19928;-76
2022/03/26 06:21:10;;;;;;;;;;;3.70;99.90;;;;;;5044888;28;19968;-76
2022/03/26 06:23:35;;;;;;;;;;;3.90;99.90;;;;;;5052878;28;19921;-76
2022/03/26 06:26:01;;;;;;;;;;;4.10;99.90;;;;;;5052951;28;19921;-76
2022/03/26 06:28:26;;;;;;;;;;;4.20;99.90;;;;;;5051975;28;20298;-76
2022/03/26 06:30:52;;;;;;;;;;;4.30;99.90;;;;;;5023965;28;20000;-77
2022/03/26 06:33:18;;;;;;;;;;;4.50;99.90;;;;;;5050966;28;19920;-77
2022/03/26 06:35:44;;;;;;;;;;;4.60;99.90;;;;;;5052924;28;19932;-77
2022/03/26 06:38:10;;;;;;;;;;;4.70;99.90;;;;;;5036156;28;20371;-77
2022/03/26 06:40:37;;;;;;;;;;;4.90;99.90;;;;;;5043248;28;20355;-77
2022/03/26 06:43:02;;;;;;;;;;;5.00;99.90;;;;;;5044423;28;20326;-77
2022/03/26 06:45:28;;;;;;;;;;;5.20;99.90;;;;;;5052571;28;19921;-77
2022/03/26 06:47:54;;;;;;;;;;;5.40;99.90;;;;;;5039391;28;19925;-78
2022/03/26 06:50:19;;;;;;;;;;;5.50;99.90;;;;;;5041299;28;19920;-77
2022/03/26 06:52:45;;;;;;;;;;;5.70;99.90;;;;;;5052456;28;20295;-77
2022/03/26 06:55:11;;;;;;;;;;;5.80;99.90;;;;;;5052541;28;20303;-78
2022/03/26 06:57:37;;;;;;;;;;;6.00;99.90;;;;;;5053522;28;19924;-79
2022/03/26 07:00:04;;;;;;;;;;;6.10;99.90;;;;;;5043592;28;21277;-79
2022/03/26 07:02:29;;;;;;;;;;;6.30;99.90;;;;;;5053184;28;19944;-79
2022/03/26 07:04:55;;;;;;;;;;;6.40;99.90;;;;;;5053306;28;19920;-77
2022/03/26 07:07:20;;;;;;;;;;;6.50;99.90;;;;;;5050729;28;19920;-77
2022/03/26 07:09:46;;;;;;;;;;;6.60;99.90;;;;;;5043321;28;19944;-76
2022/03/26 07:12:12;;;;;;;;;;;6.70;99.90;;;;;;5052397;28;19928;-76
2022/03/26 07:14:38;;;;;;;;;;;6.80;99.90;;;;;;5052666;28;19926;-79
2022/03/26 07:17:03;;;;;;;;;;;6.80;99.90;;;;;;5052436;28;20280;-79
2022/03/26 07:19:29;;;;;;;;;;;6.90;99.90;;;;;;5043505;28;19921;-79
2022/03/26 07:21:54;;;;;;;;;;;6.90;99.90;;;;;;5052236;28;20316;-79
2022/03/26 07:24:20;;;;;;;;;;;7.00;99.90;;;;;;5052182;28;20000;-78
2022/03/26 07:26:45;;;;;;;;;;;7.20;99.90;;;;;;5052005;28;20015;-79
2022/03/26 07:29:11;;;;;;;;;;;7.30;99.90;;;;;;5049156;28;20028;-78
2022/03/26 07:31:37;;;;;;;;;;;7.50;99.90;;;;;;5043577;28;20271;-78
2022/03/26 07:34:02;;;;;;;;;;;7.70;99.90;;;;;;5043859;28;19928;-78
2022/03/26 07:36:28;;;;;;;;;;;8.00;99.90;;;;;;5042405;28;20004;-78
2022/03/26 07:38:53;;;;;;;;;;;8.10;99.90;;;;;;5051244;28;19927;-78
2022/03/26 07:41:21;;;;;;;;;;;8.30;99.90;;;;;;5051884;28;19921;-78
2022/03/26 07:43:47;;;;;;;;;;;8.50;99.90;;;;;;5052325;28;19924;-78
2022/03/26 07:46:14;;;;;;;;;;;8.70;99.90;;;;;;5042657;28;20007;-78
2022/03/26 07:48:39;;;;;;;;;;;8.80;99.90;;;;;;5047524;28;20272;-78
2022/03/26 07:51:05;;;;;;;;;;;9.10;99.90;;;;;;5045929;28;19921;-77
2022/03/26 07:53:30;;;;;;;;;;;9.30;99.90;;;;;;5051656;28;19920;-78
2022/03/26 07:55:56;;;;;;;;;;;9.50;99.90;;;;;;5044276;28;19925;-77
2022/03/26 07:58:22;;;;;;;;;;;9.70;99.90;;;;;;5047162;28;19924;-77
2022/03/26 08:00:49;;;;;;;;;;;9.90;99.90;;;;;;5042921;28;19927;-77
2022/03/26 08:03:14;;;;;;;;;;;10.10;99.90;;;;;;5051232;28;20059;-77
2022/03/26 08:05:40;;;;;;;;;;;10.30;99.90;;;;;;5046160;28;19968;-77
2022/03/26 08:08:06;;;;;;;;;;;10.50;99.90;;;;;;5045478;28;19928;-77
2022/03/26 08:10:32;;;;;;;;;;;10.70;99.90;;;;;;5041498;28;19921;-77
2022/03/26 08:12:57;;;;;;;;;;;10.90;99.90;;;;;;5034309;28;19938;-77
2022/03/26 08:15:23;;;;;;;;;;;11.10;99.90;;;;;;5051098;28;20361;-77
2022/03/26 08:17:48;;;;;;;;;;;11.20;99.90;;;;;;5049763;28;19932;-76
2022/03/26 08:20:14;;;;;;;;;;;11.30;99.90;;;;;;5042442;28;20016;-76
2022/03/26 08:22:41;;;;;;;;;;;11.40;99.90;;;;;;5042364;28;19920;-76
2022/03/26 08:25:09;;;;;;;;;;;11.60;99.90;;;;;;5050754;28;19928;-76
2022/03/26 08:27:36;;;;;;;;;;;11.70;99.90;;;;;;5050646;28;19921;-76
2022/03/26 08:30:02;;;;;;;;;;;11.90;99.90;;;;;;5040850;28;19921;-76
2022/03/26 08:32:27;;;;;;;;;;;12.00;99.90;;;;;;5023720;28;19928;-77
2022/03/26 08:34:53;;;;;;;;;;;12.20;99.90;;;;;;5049875;28;20291;-76
2022/03/26 08:37:18;;;;;;;;;;;12.20;99.90;;;;;;5042060;28;19982;-76
2022/03/26 08:39:44;;;;;;;;;;;12.20;99.90;;;;;;5050452;28;19924;-76
2022/03/26 08:42:09;;;;;;;;;;;12.20;99.90;;;;;;5050453;28;19961;-76
2022/03/26 08:44:35;;;;;;;;;;;12.20;99.90;;;;;;5050474;28;19921;-76
2022/03/26 08:47:04;;;;;;;;;;;12.30;99.90;;;;;;5051828;28;19966;-76
2022/03/26 08:49:30;;;;;;;;;;;12.40;99.90;;;;;;5049966;28;20433;-76
2022/03/26 08:51:55;;;;;;;;;;;12.60;99.90;;;;;;5033782;28;19920;-76
2022/03/26 08:54:21;;;;;;;;;;;12.80;99.90;;;;;;5050287;28;19921;-76
2022/03/26 08:56:46;;;;;;;;;;;12.90;99.90;;;;;;5050099;28;19979;-76
2022/03/26 08:59:13;;;;;;;;;;;13.10;99.90;;;;;;5050370;28;19966;-76
2022/03/26 09:01:38;;;;;;;;;;;13.20;99.90;;;;;;5050449;28;19921;-76
2022/03/26 09:04:04;;;;;;;;;;;13.30;99.90;;;;;;5050089;28;20126;-76
2022/03/26 09:06:29;;;;;;;;;;;13.30;99.90;;;;;;5050003;28;19921;-76
2022/03/26 09:08:55;;;;;;;;;;;13.40;99.90;;;;;;5050207;28;19921;-76
2022/03/26 09:11:20;;;;;;;;;;;13.60;99.90;;;;;;5050148;28;19921;-76
2022/03/26 09:13:46;;;;;;;;;;;13.80;99.90;;;;;;5050115;28;19925;-77
2022/03/26 09:16:11;;;;;;;;;;;13.90;99.90;;;;;;5050225;28;19971;-76
2022/03/26 09:18:37;;;;;;;;;;;13.90;99.90;;;;;;5031763;28;19921;-76
2022/03/26 09:21:02;;;;;;;;;;;14.00;99.90;;;;;;5031514;28;19921;-76
2022/03/26 09:23:28;;;;;;;;;;;14.00;99.90;;;;;;5034257;28;20444;-76
2022/03/26 09:25:53;;;;;;;;;;;14.00;99.90;;;;;;5034105;28;19925;-75
2022/03/26 09:28:19;;;;;;;;;;;14.00;99.90;;;;;;5041496;28;19967;-76
2022/03/26 09:30:45;;;;;;;;;;;14.00;99.90;;;;;;5054107;28;20027;-75
2022/03/26 09:33:10;;;;;;;;;;;14.10;99.90;;;;;;5054066;28;19928;-76
2022/03/26 09:35:36;;;;;;;;;;;14.20;99.90;;;;;;5053866;28;19960;-76
2022/03/26 09:38:01;;;;;;;;;;;14.50;99.90;;;;;;5037514;28;19932;-76
2022/03/26 09:40:27;;;;;;;;;;;14.60;99.90;;;;;;5054051;28;19921;-75
2022/03/26 09:42:52;;;;;;;;;;;14.70;99.90;;;;;;5054362;28;19935;-76
2022/03/26 09:45:18;;;;;;;;;;;14.80;99.90;;;;;;5053807;28;20011;-76
2022/03/26 09:47:44;;;;;;;;;;;14.90;99.90;;;;;;5053532;28;20009;-76
2022/03/26 09:50:10;;;;;;;;;;;15.00;99.90;;;;;;5053814;28;20295;-76
2022/03/26 09:52:36;;;;;;;;;;;15.20;99.90;;;;;;5053873;28;19921;-76
2022/03/26 09:55:03;;;;;;;;;;;15.40;99.90;;;;;;5053537;28;19928;-76
2022/03/26 09:57:28;;;;;;;;;;;15.60;99.90;;;;;;5053409;28;19964;-76
2022/03/26 09:59:54;;;;;;;;;;;15.70;99.90;;;;;;5053471;28;19932;-76
2022/03/26 10:02:20;;;;;;;;;;;15.80;99.90;;;;;;5054861;28;19975;-76
2022/03/26 10:04:45;;;;;;;;;;;15.70;99.90;;;;;;5053585;28;20397;-76
2022/03/26 10:07:11;;;;;;;;;;;15.60;99.90;;;;;;5053338;28;19960;-76
2022/03/26 10:09:38;;;;;;;;;;;15.80;99.90;;;;;;5053370;28;19928;-77
2022/03/26 10:12:05;;;;;;;;;;;16.10;99.90;;;;;;5053673;28;19979;-76
2022/03/26 10:14:41;;;;;;;;;;;16.30;99.90;;;;;;5053295;28;19921;-76
2022/03/26 10:17:10;;;;;;;;;;;16.30;97.70;;;;;;5053151;28;20409;-76
2022/03/26 10:19:36;;;;;;;;;;;16.40;98.80;;;;;;5053210;28;20367;-76
2022/03/26 10:22:02;;;;;;;;;;;16.50;99.90;;;;;;5053173;28;19960;-74
2022/03/26 10:24:28;;;;;;;;;;;16.60;94.70;;;;;;5048344;28;20290;-76
2022/03/26 10:26:55;;;;;;;;;;;16.60;91.60;;;;;;5043638;28;19970;-76
2022/03/26 10:29:20;;;;;;;;;;;16.80;93.20;;;;;;5097196;22;19931;-80
2022/03/26 10:34:31;;;;;;;;;;;17.20;87.00;;;;;;5080120;28;19980;-80
2022/03/26 10:36:57;;;;;;;;;;;17.40;79.30;;;;;;5064244;28;19920;-80
2022/03/26 10:39:24;;;;;;;;;;;17.20;88.60;;;;;;5079525;28;19964;-80
2022/03/26 10:41:52;;;;;;;;;;;17.10;85.40;;;;;;5067754;28;19976;-79
2022/03/26 10:44:19;;;;;;;;;;;17.20;91.30;;;;;;5060616;28;20400;-80
2022/03/26 10:46:44;;;;;;;;;;;17.20;92.00;;;;;;5062981;28;19972;-79
2022/03/26 10:49:10;;;;;;;;;;;17.30;92.90;;;;;;5079560;28;19924;-80
2022/03/26 10:51:37;;;;;;;;;;;17.40;95.40;;;;;;5054702;28;20646;-80
2022/03/26 10:54:10;;;;;;;;;;;17.40;91.20;;;;;;5082423;28;19929;-80
2022/03/26 10:56:37;;;;;;;;;;;17.50;87.30;;;;;;5073245;28;19939;-80
2022/03/26 10:59:03;;;;;;;;;;;17.70;89.40;;;;;;5067492;28;20418;-81
2022/03/26 11:01:28;;;;;;;;;;;17.70;85.50;;;;;;5070021;28;19920;-80
2022/03/26 11:03:54;;;;;;;;;;;17.70;92.40;;;;;;5070011;28;19924;-80
2022/03/26 11:06:24;;;;;;;;;;;17.50;87.30;;;;;;5080648;28;19992;-80
2022/03/26 11:08:50;;;;;;;;;;;17.20;83.00;;;;;;5064439;28;19920;-80
2022/03/26 11:11:16;;;;;;;;;;;17.20;95.60;;;;;;5081419;28;19924;-80
2022/03/26 11:13:44;;;;;;;;;;;17.60;91.10;;;;;;5081782;28;19982;-81
2022/03/26 11:16:14;;;;;;;;;;;17.80;88.50;;;;;;5070775;28;19927;-80
2022/03/26 11:18:44;;;;;;;;;;;18.00;81.10;;;;;;5082180;28;19931;-81
2022/03/26 11:21:18;;;;;;;;;;;18.10;78.10;;;;;;5081614;28;19920;-80
2022/03/26 11:23:52;;;;;;;;;;;18.40;76.20;;;;;;5082865;28;19920;-80
2022/03/26 11:26:38;;;;;;;;;;;18.20;73.70;;;;;;5059301;28;19920;-77
2022/03/26 11:29:13;;;;;;;;;;;18.10;75.70;;;;;;5071227;28;19927;-78
2022/03/26 11:31:45;;;;;;;;;;;18.20;73.40;;;;;;5071776;28;20245;-77
2022/03/26 11:34:10;;;;;;;;;;;18.30;70.50;;;;;;5071170;28;19924;-77
2022/03/26 11:36:36;;;;;;;;;;;18.30;74.20;;;;;;5071469;28;20302;-78
2022/03/26 11:39:10;;;;;;;;;;;18.40;70.90;;;;;;5071118;28;19927;-78
2022/03/26 11:41:35;;;;;;;;;;;18.50;70.80;;;;;;5071810;28;20317;-78
2022/03/26 11:44:01;;;;;;;;;;;18.40;66.10;;;;;;5070394;28;19921;-78
2022/03/26 11:52:15;;;;;;;;;;;18.50;69.40;;;;;;5070459;28;19925;-78
2022/03/26 11:54:40;;;;;;;;;;;18.60;67.00;;;;;;5054504;28;20306;-78
2022/03/26 11:57:07;;;;;;;;;;;18.60;68.30;;;;;;5064204;28;19920;-77
2022/03/26 11:59:36;;;;;;;;;;;18.60;69.10;;;;;;5060673;28;19929;-78
2022/03/26 12:02:14;;;;;;;;;;;18.50;67.60;;;;;;5071068;28;19927;-77
2022/03/26 12:04:51;;;;;;;;;;;18.50;67.20;;;;;;5067731;28;19920;-78
2022/03/26 12:07:17;;;;;;;;;;;18.60;67.00;;;;;;5061521;28;19993;-79
2022/03/26 12:09:43;;;;;;;;;;;18.50;67.60;;;;;;5064313;28;20285;-78
2022/03/26 12:12:15;;;;;;;;;;;18.50;66.60;;;;;;5066973;28;19959;-78
2022/03/26 12:14:59;;;;;;;;;;;18.70;63.10;;;;;;5065194;28;19988;-78
2022/03/26 12:17:44;;;;;;;;;;;18.80;62.90;;;;;;5066713;28;20378;-78
2022/03/26 12:20:21;;;;;;;;;;;18.80;62.30;;;;;;5070549;28;19935;-77
2022/03/26 12:22:51;;;;;;;;;;;18.70;61.00;;;;;;5061125;28;19950;-78
2022/03/26 12:25:17;;;;;;;;;;;18.40;60.80;;;;;;5052442;28;19921;-77
2022/03/26 12:27:45;;;;;;;;;;;18.00;63.00;;;;;;5060821;28;19920;-78
2022/03/26 12:30:11;;;;;;;;;;;18.00;67.50;;;;;;5070187;28;20399;-77
2022/03/26 12:32:36;;;;;;;;;;;18.30;95.80;;;;;;5070453;28;20019;-79
2022/03/26 12:35:06;;;;;;;;;;;18.20;68.50;;;;;;5070179;28;19925;-78
2022/03/26 12:37:36;;;;;;;;;;;18.10;69.80;;;;;;5061004;28;20003;-77
2022/03/26 12:40:04;;;;;;;;;;;18.10;70.40;;;;;;5053686;28;20366;-78
2022/03/26 12:42:30;;;;;;;;;;;18.20;64.30;;;;;;5070253;28;19955;-77
2022/03/26 12:44:55;;;;;;;;;;;18.20;62.00;;;;;;5070258;28;20025;-78
2022/03/26 12:47:22;;;;;;;;;;;18.20;63.90;;;;;;5070612;28;19935;-78
2022/03/26 12:49:48;;;;;;;;;;;18.30;67.20;;;;;;5070090;28;20409;-79
2022/03/26 12:52:20;;;;;;;;;;;18.20;63.70;;;;;;5070644;28;19964;-78
2022/03/26 12:54:55;;;;;;;;;;;18.10;72.10;;;;;;5070880;28;20384;-79
2022/03/26 12:57:21;;;;;;;;;;;18.40;74.90;;;;;;5071004;28;20231;-78
2022/03/26 12:59:53;;;;;;;;;;;18.60;64.70;;;;;;5066573;28;19921;-78
2022/03/26 13:02:20;;;;;;;;;;;18.50;62.70;;;;;;5051508;28;19920;-81
2022/03/26 13:04:52;;;;;;;;;;;18.20;64.30;;;;;;5059864;28;20240;-80
2022/03/26 13:07:18;;;;;;;;;;;17.90;69.80;;;;;;5073010;28;20011;-80
2022/03/26 13:09:43;;;;;;;;;;;17.70;84.00;;;;;;5074945;28;19960;-80
2022/03/26 13:12:22;;;;;;;;;;;17.60;81.90;;;;;;5056079;28;20335;-77
2022/03/26 13:14:48;;;;;;;;;;;17.60;94.00;;;;;;5033246;28;19925;-78
2022/03/26 13:17:13;;;;;;;;;;;17.60;93.20;;;;;;5053847;28;19975;-78
2022/03/26 13:19:45;;;;;;;;;;;17.70;92.80;;;;;;5052552;28;20087;-78
2022/03/26 13:22:14;;;;;;;;;;;17.60;92.00;;;;;;5068425;28;19920;-79
2022/03/26 13:24:48;;;;;;;;;;;17.60;95.30;;;;;;5053921;28;19996;-79
2022/03/26 13:27:16;;;;;;;;;;;17.80;93.90;;;;;;5064890;28;19924;-80
2022/03/26 13:29:41;;;;;;;;;;;17.80;95.20;;;;;;5065684;28;19924;-79
2022/03/26 13:32:09;;;;;;;;;;;17.60;90.30;;;;;;5071254;28;19978;-80
2022/03/26 13:34:36;;;;;;;;;;;17.20;95.50;;;;;;5085724;28;19986;-79
2022/03/26 13:37:15;;;;;;;;;;;16.80;99.50;;;;;;5068271;28;19940;-80
2022/03/26 13:39:50;;;;;;;;;;;16.80;99.90;;;;;;5081563;28;19932;-79
2022/03/26 13:42:19;;;;;;;;;;;16.90;99.90;;;;;;5077981;28;20007;-79
2022/03/26 13:44:45;;;;;;;;;;;17.20;99.90;;;;;;5061598;28;19920;-79
2022/03/26 13:47:15;;;;;;;;;;;17.30;99.90;;;;;;5076577;28;19966;-79
2022/03/26 13:49:42;;;;;;;;;;;17.70;99.90;;;;;;5076255;28;20011;-79
2022/03/26 13:52:22;;;;;;;;;;;17.70;99.90;;;;;;5076516;28;19970;-79
2022/03/26 13:54:48;;;;;;;;;;;17.90;99.90;;;;;;5076601;28;19924;-79
2022/03/26 13:57:13;;;;;;;;;;;18.30;95.90;;;;;;5076429;28;20054;-79
2022/03/26 13:59:42;;;;;;;;;;;18.20;95.70;;;;;;5076714;28;20077;-79
2022/03/26 14:02:08;;;;;;;;;;;18.20;94.60;;;;;;5075939;28;19921;-79
2022/03/26 14:04:35;;;;;;;;;;;18.40;98.90;;;;;;5078405;28;19921;-79
2022/03/26 14:07:00;;;;;;;;;;;18.80;95.50;;;;;;5077219;28;19992;-79
2022/03/26 14:09:29;;;;;;;;;;;19.50;84.20;;;;;;5063872;28;19956;-80
2022/03/26 14:11:55;;;;;;;;;;;19.40;82.50;;;;;;5080536;28;19943;-79
2022/03/26 14:14:21;;;;;;;;;;;19.30;81.20;;;;;;5062241;28;19924;-79
2022/03/26 14:16:46;;;;;;;;;;;18.90;87.80;;;;;;5079980;28;19995;-79
2022/03/26 14:19:12;;;;;;;;;;;18.80;89.40;;;;;;5081844;28;20007;-79
2022/03/26 14:21:38;;;;;;;;;;;18.50;90.60;;;;;;5080115;28;19925;-79
2022/03/26 14:24:04;;;;;;;;;;;17.70;97.00;;;;;;5077903;28;19921;-79
2022/03/26 14:26:29;;;;;;;;;;;17.40;99.90;;;;;;5080566;28;19943;-79
2022/03/26 14:28:54;;;;;;;;;;;17.70;99.90;;;;;;5073564;28;19945;-79